createdAt,value
2023-03-29T00:02:44.814Z,96092.53
2023-03-29T00:07:46.516Z,96119.66
2023-03-29T00:12:48.817Z,96135.63
2023-03-29T00:17:51.155Z,96133.56
2023-03-29T00:22:52.707Z,96131.03
2023-03-29T00:27:54.276Z,96129.94
2023-03-29T00:32:55.839Z,96131.75
2023-03-29T00:37:57.519Z,96109.78
2023-03-29T00:42:59.053Z,96114.00
2023-03-29T00:48:04.659Z,96116.31
2023-03-29T00:53:27.466Z,96132.81
2023-03-29T00:58:35.151Z,96133.25
2023-03-29T01:03:50.697Z,96133.41
2023-03-29T01:09:02.888Z,96111.88
2023-03-29T01:14:34.742Z,96101.78
2023-03-29T01:20:18.523Z,96093.59
2023-03-29T01:25:37.758Z,96068.81
2023-03-29T01:30:46.697Z,96081.94
2023-03-29T01:35:55.708Z,96078.56
2023-03-29T01:40:57.319Z,96082.34
2023-03-29T01:46:11.331Z,96065.47
2023-03-29T01:51:21.306Z,96028.28
2023-03-29T01:56:26.091Z,96006.22
2023-03-29T02:01:34.185Z,96012.34
2023-03-29T02:06:37.864Z,96008.72
2023-03-29T02:11:43.836Z,96012.34
2023-03-29T02:16:45.348Z,96014.59
2023-03-29T02:21:58.122Z,96020.44
2023-03-29T02:27:00.465Z,96022.25
2023-03-29T02:32:26.411Z,96037.41
2023-03-29T02:37:31.072Z,96023.50
2023-03-29T02:42:32.788Z,96021.41
2023-03-29T02:47:50.336Z,96019.31
2023-03-29T02:52:57.626Z,96012.91
2023-03-29T02:57:59.291Z,96004.16
2023-03-29T03:03:02.046Z,96007.38
2023-03-29T03:08:05.229Z,95999.72
2023-03-29T03:13:06.783Z,96003.47
2023-03-29T03:18:10.150Z,96003.59
2023-03-29T03:23:11.775Z,95992.47
2023-03-29T03:28:13.520Z,95996.78
2023-03-29T03:33:15.045Z,95992.88
2023-03-29T03:38:39.649Z,95988.72
2023-03-29T03:43:41.239Z,95982.88
2023-03-29T03:48:44.190Z,95969.63
2023-03-29T03:53:56.735Z,95974.47
2023-03-29T03:59:10.402Z,95987.16
2023-03-29T04:04:32.404Z,95976.44
2023-03-29T04:09:41.229Z,95987.03
2023-03-29T04:15:03.526Z,95990.34
2023-03-29T04:20:06.110Z,95983.13
2023-03-29T04:25:09.018Z,95992.19
2023-03-29T04:30:23.483Z,95990.78
2023-03-29T04:35:43.340Z,96009.31
2023-03-29T04:40:50.635Z,96002.91
2023-03-29T04:45:58.857Z,95983.69
2023-03-29T04:51:23.453Z,95989.28
2023-03-29T04:56:27.092Z,95988.25
2023-03-29T05:02:07.635Z,95974.94
2023-03-29T05:07:12.000Z,95974.63
2023-03-29T05:12:14.331Z,95977.00
2023-03-29T05:17:41.798Z,95982.72
2023-03-29T05:22:46.709Z,95980.91
2023-03-29T05:28:01.398Z,95980.59
2023-03-29T05:33:03.216Z,95990.09
2023-03-29T05:38:05.545Z,96007.63
2023-03-29T05:43:07.384Z,96003.03
2023-03-29T05:48:09.197Z,95985.56
2023-03-29T05:53:14.787Z,96003.44
2023-03-29T05:58:16.960Z,96001.88
2023-03-29T06:03:22.235Z,95982.03
2023-03-29T06:08:26.166Z,96000.69
2023-03-29T06:13:37.627Z,95980.03
2023-03-29T06:18:39.428Z,95987.81
2023-03-29T06:23:40.965Z,95998.41
2023-03-29T06:28:42.661Z,95992.94
2023-03-29T06:33:44.200Z,95993.31
2023-03-29T06:39:12.022Z,95988.56
2023-03-29T06:44:36.670Z,96003.19
2023-03-29T06:49:45.862Z,95992.13
2023-03-29T06:55:05.109Z,96004.63
2023-03-29T07:00:07.624Z,96003.28
2023-03-29T07:05:29.067Z,95999.66
2023-03-29T07:10:37.148Z,95999.16
2023-03-29T07:16:01.503Z,96000.34
2023-03-29T07:21:13.921Z,96009.66
2023-03-29T07:26:15.478Z,96015.31
2023-03-29T07:31:30.899Z,96007.00
2023-03-29T07:36:51.407Z,96006.31
2023-03-29T07:41:57.076Z,95999.19
2023-03-29T07:47:01.976Z,96015.72
2023-03-29T07:52:03.954Z,96008.19
2023-03-29T07:57:06.498Z,96012.16
2023-03-29T08:02:17.339Z,96021.03
2023-03-29T08:07:21.632Z,96027.03
2023-03-29T08:12:35.400Z,96017.78
2023-03-29T08:17:37.803Z,96013.06
2023-03-29T08:22:40.488Z,96013.50
2023-03-29T08:27:50.942Z,96011.69
2023-03-29T08:33:03.370Z,96022.25
2023-03-29T08:38:05.077Z,96028.78
2023-03-29T08:43:24.880Z,96032.72
2023-03-29T08:48:56.610Z,96030.31
2023-03-29T08:54:05.032Z,96032.41
2023-03-29T08:59:30.436Z,96039.16
2023-03-29T09:04:35.547Z,96037.34
2023-03-29T09:09:46.722Z,96039.94
2023-03-29T09:15:42.097Z,96040.38
2023-03-29T09:21:12.080Z,96042.53
2023-03-29T09:26:35.695Z,96033.41
2023-03-29T09:31:51.141Z,96032.28
2023-03-29T09:37:20.747Z,96030.19
2023-03-29T09:42:25.303Z,96023.50
2023-03-29T09:47:36.042Z,96024.72
2023-03-29T09:52:42.860Z,96017.22
2023-03-29T09:57:52.252Z,96014.81
2023-03-29T10:02:57.568Z,96012.28
2023-03-29T10:08:22.649Z,96019.50
2023-03-29T10:13:34.799Z,96013.56
2023-03-29T10:18:41.129Z,96017.47
2023-03-29T10:23:43.085Z,96009.09
2023-03-29T10:28:44.650Z,96006.63
2023-03-29T10:33:52.639Z,96013.34
2023-03-29T10:38:58.548Z,96007.06
2023-03-29T10:44:00.590Z,96011.09
2023-03-29T10:49:05.049Z,96014.91
2023-03-29T10:54:13.452Z,96010.25
2023-03-29T10:59:23.690Z,96004.91
2023-03-29T11:04:28.204Z,96012.88
2023-03-29T11:09:41.651Z,96013.06
2023-03-29T11:14:55.885Z,96006.06
2023-03-29T11:20:22.252Z,95982.28
2023-03-29T11:25:38.262Z,95965.31
2023-03-29T11:31:19.342Z,95962.13
2023-03-29T11:36:29.468Z,95975.38
2023-03-29T11:41:37.319Z,95983.03
2023-03-29T11:46:45.449Z,95963.03
2023-03-29T11:51:53.782Z,95974.56
2023-03-29T11:57:13.564Z,95963.19
2023-03-29T12:02:32.461Z,95956.72
2023-03-29T12:07:43.778Z,95955.72
2023-03-29T12:12:48.234Z,95958.59
2023-03-29T12:18:01.904Z,95955.91
2023-03-29T12:23:05.898Z,95963.16
2023-03-29T12:28:36.236Z,95957.22
2023-03-29T12:34:00.994Z,95962.91
2023-03-29T12:39:22.841Z,95944.47
2023-03-29T12:44:49.016Z,95932.81
2023-03-29T12:49:59.438Z,95929.88
2023-03-29T12:55:03.971Z,95919.72
2023-03-29T13:00:33.259Z,95911.50
2023-03-29T13:05:36.318Z,95910.09
2023-03-29T13:10:42.017Z,95906.13
2023-03-29T13:15:44.738Z,95893.91
2023-03-29T13:20:56.638Z,95892.25
2023-03-29T13:26:13.419Z,95895.78
2023-03-29T13:31:41.357Z,95877.38
2023-03-29T13:36:58.209Z,95875.78
2023-03-29T13:42:19.558Z,95892.84
2023-03-29T13:47:33.171Z,95865.75
2023-03-29T13:52:42.587Z,95882.66
2023-03-29T13:57:52.242Z,95875.38
2023-03-29T14:02:57.128Z,95881.19
2023-03-29T14:08:08.657Z,95876.78
2023-03-29T14:13:14.960Z,95872.41
2023-03-29T14:18:21.294Z,95869.00
2023-03-29T14:23:25.077Z,95878.34
2023-03-29T14:28:28.842Z,95883.19
2023-03-29T14:33:32.581Z,95874.53
2023-03-29T14:38:36.441Z,95866.25
2023-03-29T14:43:38.150Z,95861.97
2023-03-29T14:48:40.138Z,95860.78
2023-03-29T14:53:42.395Z,95858.13
2023-03-29T14:58:45.898Z,95853.75
2023-03-29T15:03:54.727Z,95850.13
2023-03-29T15:09:05.110Z,95848.53
2023-03-29T15:14:15.493Z,95856.91
2023-03-29T15:19:20.734Z,95846.72
2023-03-29T15:24:33.684Z,95839.34
2023-03-29T15:29:40.564Z,95841.97
2023-03-29T15:34:42.028Z,95836.84
2023-03-29T15:39:44.100Z,95823.81
2023-03-29T15:44:45.690Z,95826.19
2023-03-29T15:49:47.344Z,95826.47
2023-03-29T15:54:48.850Z,95824.56
2023-03-29T15:59:50.579Z,95823.22
2023-03-29T16:04:52.086Z,95816.88
2023-03-29T16:09:53.583Z,95829.50
2023-03-29T16:14:55.062Z,95830.63
2023-03-29T16:19:56.622Z,95835.97
2023-03-29T16:24:58.105Z,95842.44
2023-03-29T16:29:59.596Z,95848.81
2023-03-29T16:35:01.108Z,95840.25
2023-03-29T16:40:02.599Z,95828.66
2023-03-29T16:45:04.512Z,95823.13
2023-03-29T16:50:07.520Z,95835.28
2023-03-29T16:55:10.800Z,95846.09
2023-03-29T17:00:13.466Z,95840.00
2023-03-29T17:05:15.127Z,95830.22
2023-03-29T17:10:16.706Z,95836.22
2023-03-29T17:15:18.234Z,95834.81
2023-03-29T17:20:19.685Z,95836.34
2023-03-29T17:25:22.607Z,95826.78
2023-03-29T17:30:24.087Z,95821.19
2023-03-29T17:35:26.427Z,95811.66
2023-03-29T17:40:27.946Z,95806.31
2023-03-29T17:45:29.580Z,95804.25
2023-03-29T17:50:32.198Z,95816.31
2023-03-29T17:55:33.723Z,95816.72
2023-03-29T18:00:35.290Z,95824.31
2023-03-29T18:05:36.906Z,95826.94
2023-03-29T18:10:38.379Z,95827.81
2023-03-29T18:15:39.857Z,95818.53
2023-03-29T18:20:44.195Z,95810.75
2023-03-29T18:25:45.660Z,95808.88
2023-03-29T18:30:50.972Z,95815.88
2023-03-29T18:35:52.613Z,95824.22
2023-03-29T18:40:54.114Z,95826.56
2023-03-29T18:45:55.806Z,95838.88
2023-03-29T18:50:57.793Z,95837.00
2023-03-29T18:56:00.587Z,95849.63
2023-03-29T19:01:04.468Z,95874.09
2023-03-29T19:06:07.246Z,95887.09
2023-03-29T19:11:11.486Z,95894.75
2023-03-29T19:16:13.083Z,95909.06
2023-03-29T19:21:14.810Z,95911.91
2023-03-29T19:26:16.269Z,95920.22
2023-03-29T19:31:17.766Z,95929.84
2023-03-29T19:36:19.304Z,95932.66
2023-03-29T19:41:20.829Z,95929.53
2023-03-29T19:46:22.614Z,95924.22
2023-03-29T19:51:24.110Z,95913.38
2023-03-29T19:56:26.269Z,95876.72
2023-03-29T20:01:27.813Z,95868.22
2023-03-29T20:06:29.334Z,95875.56
2023-03-29T20:11:30.801Z,95863.44
2023-03-29T20:16:32.683Z,95852.50
2023-03-29T20:21:34.228Z,95847.97
2023-03-29T20:26:35.790Z,95851.78
2023-03-29T20:31:37.290Z,95839.66
2023-03-29T20:36:38.951Z,95835.34
2023-03-29T20:41:40.483Z,95824.88
2023-03-29T20:46:42.622Z,95823.25
2023-03-29T20:51:44.154Z,95818.09
2023-03-29T20:56:45.700Z,95807.78
2023-03-29T21:01:47.270Z,95807.81
2023-03-29T21:06:48.803Z,95798.19
2023-03-29T21:11:50.457Z,95784.41
2023-03-29T21:16:52.493Z,95766.09
2023-03-29T21:21:53.959Z,95775.25
2023-03-29T21:26:55.409Z,95769.06
2023-03-29T21:31:56.886Z,95772.09
2023-03-29T21:36:58.433Z,95769.78
2023-03-29T21:41:59.936Z,95766.41
2023-03-29T21:47:01.535Z,95757.06
2023-03-29T21:52:03.252Z,95755.56
2023-03-29T21:57:04.753Z,95756.06
2023-03-29T22:02:06.368Z,95752.09
2023-03-29T22:07:07.822Z,95742.75
2023-03-29T22:12:09.821Z,95736.63
2023-03-29T22:17:11.270Z,95728.47
2023-03-29T22:22:14.289Z,95729.59
2023-03-29T22:27:15.894Z,95714.81
2023-03-29T22:32:17.375Z,95714.81
2023-03-29T22:37:18.888Z,95707.88
2023-03-29T22:42:20.352Z,95697.19
2023-03-29T22:47:21.833Z,95706.81
2023-03-29T22:52:23.324Z,95700.41
2023-03-29T22:57:24.875Z,95690.53
2023-03-29T23:02:26.444Z,95688.31
2023-03-29T23:07:27.950Z,95685.72
2023-03-29T23:12:29.472Z,95688.44
2023-03-29T23:17:30.955Z,95681.09
2023-03-29T23:22:32.658Z,95680.22
2023-03-29T23:27:34.128Z,95677.56
2023-03-29T23:32:35.695Z,95677.13
2023-03-29T23:37:37.227Z,95680.41
2023-03-29T23:42:38.835Z,95675.59
2023-03-29T23:47:40.594Z,95668.13
2023-03-29T23:52:42.064Z,95661.72
2023-03-29T23:57:43.579Z,95661.16
